| time (UTC) | temp F | wind direction | speed MPH | gust MPH | rain 1hr in | rain 24hr in | rain mn in | humidity % | barometer mb |
| 20260906024537 | 67 | 0 | 0.0 | 0.0 | 0.00 | 0.02 | 0.02 | 59 | 1020.0 |
| 20260906023034 | 66 | 0 | 0.0 | 1.0 | 0.00 | 0.02 | 0.02 | 59 | 1019.9 |
| 20260906021537 | 67 | 0 | 0.0 | 1.0 | 0.00 | 0.02 | 0.02 | 60 | 1019.9 |
| 20260906020039 | 67 | 0 | 0.0 | 2.0 | 0.00 | 0.02 | 0.02 | 61 | 1019.9 |
| 20260906014546 | 67 | 0 | 0.0 | 4.0 | 0.00 | 0.02 | 0.02 | 61 | 1019.9 |
| 20260906013037 | 66 | 0 | 0.0 | 3.0 | 0.00 | 0.02 | 0.02 | 63 | 1019.9 |
| 20260906011543 | 67 | 0 | 1.0 | 7.0 | 0.00 | 0.02 | 0.02 | 60 | 1019.9 |
| 20260906010058 | 67 | 0 | 0.0 | 9.0 | 0.00 | 0.02 | 0.02 | 61 | 1019.9 |
| 20260906004543 | 66 | 0 | 0.0 | 10.0 | 0.00 | 0.02 | 0.02 | 62 | 1019.9 |
| 20260906003042 | 67 | 0 | 0.0 | 4.0 | 0.00 | 0.02 | 0.02 | 61 | 1019.9 |
| 20260906001555 | 66 | 0 | 0.0 | 4.0 | 0.00 | 0.02 | 0.02 | 62 | 1019.8 |
| 20260906000036 | 66 | 0 | 0.0 | 6.0 | 0.00 | 0.02 | 0.02 | 62 | 1019.8 |
| 20260905234537 | 66 | 0 | 0.0 | 8.0 | 0.00 | 0.02 | 0.02 | 63 | 1019.7 |
| 20260905233035 | 66 | 0 | 0.0 | 8.0 | 0.00 | 0.02 | 0.02 | 62 | 1019.8 |
| 20260905231542 | 66 | 0 | 0.0 | 11.0 | 0.00 | 0.02 | 0.02 | 62 | 1019.7 |
| 20260905230039 | 66 | 198 | 0.0 | 3.0 | 0.00 | 0.02 | 0.02 | 64 | 1019.6 |
| 20260905224543 | 66 | 0 | 0.0 | 8.0 | 0.00 | 0.02 | 0.02 | 63 | 1019.6 |
| 20260905223039 | 65 | 0 | 1.0 | 10.0 | 0.00 | 0.02 | 0.02 | 64 | 1019.8 |
| 20260905221541 | 65 | 0 | 0.0 | 14.0 | 0.00 | 0.02 | 0.02 | 65 | 1019.9 |
| 20260905220036 | 65 | 0 | 1.0 | 10.0 | 0.00 | 0.02 | 0.02 | 65 | 1019.9 |
| 20260905214534 | 65 | 0 | 0.0 | 11.0 | 0.00 | 0.02 | 0.02 | 66 | 1019.7 |
| 20260905213045 | 64 | 0 | 0.0 | 11.0 | 0.00 | 0.02 | 0.02 | 67 | 1019.6 |
| 20260905211542 | 65 | 188 | 0.0 | 11.0 | 0.00 | 0.02 | 0.02 | 65 | 1019.5 |
| 20260905210039 | 65 | 223 | 0.0 | 11.0 | 0.00 | 0.02 | 0.02 | 67 | 1019.5 |
| 20260905204534 | 65 | 0 | 1.0 | 14.0 | 0.00 | 0.02 | 0.02 | 65 | 1019.3 |
| 20260905203051 | 64 | 0 | 0.0 | 8.0 | 0.00 | 0.02 | 0.02 | 66 | 1019.2 |
| 20260905201552 | 65 | 0 | 0.0 | 11.0 | 0.00 | 0.02 | 0.02 | 65 | 1019.1 |
| 20260905200037 | 64 | 0 | 1.0 | 12.0 | 0.00 | 0.02 | 0.02 | 67 | 1019.1 |
| 20260905194536 | 64 | 0 | 0.0 | 9.0 | 0.00 | 0.02 | 0.02 | 66 | 1019.0 |
| 20260905193037 | 64 | 227 | 1.0 | 11.0 | 0.00 | 0.02 | 0.02 | 67 | 1018.8 |
| 20260905191537 | 63 | 0 | 0.0 | 7.0 | 0.00 | 0.02 | 0.02 | 69 | 1018.6 |
| 20260905190038 | 62 | 0 | 1.0 | 12.0 | 0.00 | 0.02 | 0.02 | 69 | 1018.8 |
| 20260905184545 | 63 | 0 | 0.0 | 10.0 | 0.00 | 0.02 | 0.02 | 69 | 1018.8 |
| 20260905183043 | 63 | 0 | 0.0 | 4.0 | 0.00 | 0.02 | 0.02 | 70 | 1018.6 |
| 20260905181537 | 62 | 0 | 0.0 | 7.0 | 0.00 | 0.02 | 0.02 | 72 | 1018.4 |
| 20260905180037 | 62 | 0 | 0.0 | 1.0 | 0.00 | 0.02 | 0.02 | 74 | 1018.3 |
| 20260905174534 | 61 | 0 | 0.0 | 0.0 | 0.00 | 0.02 | 0.02 | 78 | 1018.2 |
| 20260905173034 | 60 | 0 | 0.0 | 0.0 | 0.00 | 0.02 | 0.02 | 79 | 1018.0 |
| 20260905171536 | 59 | 0 | 0.0 | 0.0 | 0.00 | 0.02 | 0.02 | 82 | 1018.0 |
| 20260905170035 | 57 | 0 | 0.0 | 0.0 | 0.00 | 0.02 | 0.02 | 87 | 1017.9 |
| 20260905164608 | 55 | 0 | 0.0 | 0.0 | 0.00 | 0.02 | 0.02 | 91 | 1018.1 |
| 20260905163036 | 55 | 0 | 0.0 | 0.0 | 0.00 | 0.02 | 0.02 | 91 | 1018.3 |
| 20260905161536 | 55 | 0 | 0.0 | 0.0 | 0.00 | 0.02 | 0.02 | 91 | 1018.2 |
| 20260905160035 | 55 | 0 | 0.0 | 0.0 | 0.00 | 0.02 | 0.02 | 91 | 1018.1 |
| 20260905154535 | 55 | 0 | 0.0 | 0.0 | 0.00 | 0.02 | 0.02 | 90 | 1018.0 |
| 20260905153037 | 55 | 0 | 0.0 | 0.0 | 0.00 | 0.02 | 0.02 | 90 | 1017.9 |
| 20260905151538 | 55 | 0 | 0.0 | 0.0 | 0.00 | 0.02 | 0.02 | 89 | 1018.1 |
| 20260905150035 | 55 | 0 | 0.0 | 0.0 | 0.00 | 0.02 | 0.02 | 89 | 1018.2 |
| 20260905144537 | 55 | 0 | 0.0 | 0.0 | 0.00 | 0.02 | 0.02 | 90 | 1018.1 |
| 20260905143035 | 55 | 0 | 0.0 | 0.0 | 0.00 | 0.02 | 0.02 | 90 | 1017.9 |
| 20260905141536 | 56 | 0 | 0.0 | 0.0 | 0.00 | 0.02 | 0.02 | 88 | 1017.7 |
| 20260905140033 | 56 | 0 | 0.0 | 0.0 | 0.00 | 0.02 | 0.02 | 87 | 1017.6 |
| 20260905134541 | 56 | 0 | 0.0 | 0.0 | 0.00 | 0.02 | 0.02 | 89 | 1017.7 |
| 20260905133033 | 56 | 0 | 0.0 | 0.0 | 0.00 | 0.02 | 0.02 | 89 | 1017.4 |
| 20260905131535 | 57 | 0 | 0.0 | 0.0 | 0.00 | 0.02 | 0.02 | 86 | 1017.4 |
| 20260905130041 | 60 | 0 | 0.0 | 0.0 | 0.01 | 0.02 | 0.02 | 80 | 1017.3 |
| 20260905124536 | 61 | 0 | 0.0 | 11.0 | 0.01 | 0.02 | 0.02 | 71 | 1016.9 |
| 20260905123036 | 61 | 0 | 0.0 | 2.0 | 0.01 | 0.02 | 0.02 | 72 | 1016.9 |
| 20260905121543 | 61 | 0 | 0.0 | 2.0 | 0.00 | 0.01 | 0.01 | 76 | 1017.2 |
| 20260905120036 | 60 | 0 | 0.0 | 4.0 | 0.01 | 0.01 | 0.01 | 79 | 1017.3 |
| 20260905114537 | 57 | 0 | 0.0 | 0.0 | 0.01 | 0.01 | 0.01 | 87 | 1017.1 |
| 20260905113034 | 57 | 0 | 0.0 | 0.0 | 0.01 | 0.01 | 0.01 | 86 | 1017.3 |
| 20260905111536 | 59 | 0 | 0.0 | 0.0 | 0.00 | 0.00 | 0.00 | 82 | 1017.4 |
| 20260905110040 | 57 | 142 | 0.0 | 3.0 | 0.00 | 0.00 | 0.00 | 81 | 1016.8 |
| 20260905104536 | 54 | 0 | 0.0 | 0.0 | 0.00 | 0.00 | 0.00 | 91 | 1016.6 |
| 20260905103034 | 54 | 0 | 0.0 | 0.0 | 0.00 | 0.00 | 0.00 | 91 | 1016.5 |
| 20260905101534 | 54 | 0 | 0.0 | 0.0 | 0.00 | 0.00 | 0.00 | 91 | 1016.6 |
| 20260905100041 | 54 | 0 | 0.0 | 0.0 | 0.00 | 0.00 | 0.00 | 91 | 1016.9 |
| 20260905094536 | 54 | 0 | 0.0 | 0.0 | 0.00 | 0.00 | 0.00 | 90 | 1016.8 |
| 20260905093035 | 55 | 0 | 0.0 | 0.0 | 0.00 | 0.00 | 0.00 | 89 | 1016.9 |
| 20260905091536 | 55 | 0 | 0.0 | 0.0 | 0.00 | 0.00 | 0.00 | 88 | 1017.0 |
| 20260905090038 | 55 | 0 | 0.0 | 0.0 | 0.00 | 0.00 | 0.00 | 88 | 1017.1 |
| 20260905084535 | 55 | 0 | 0.0 | 1.0 | 0.00 | 0.00 | 0.00 | 88 | 1017.3 |
| 20260905083034 | 55 | 0 | 0.0 | 0.0 | 0.00 | 0.00 | 0.00 | 87 | 1017.9 |
| 20260905081536 | 55 | 0 | 0.0 | 0.0 | 0.00 | 0.00 | 0.00 | 87 | 1018.1 |
| 20260905080035 | 55 | 0 | 0.0 | 0.0 | 0.00 | 0.00 | 0.00 | 87 | 1018.4 |
| 20260905074536 | 55 | 0 | 0.0 | 0.0 | 0.00 | 0.00 | 0.00 | 87 | 1018.6 |
| 20260905073041 | 56 | 0 | 0.0 | 0.0 | 0.00 | 0.00 | 0.00 | 88 | 1018.8 |
| 20260905071536 | 56 | 0 | 0.0 | 0.0 | 0.00 | 0.00 | 0.00 | 86 | 1019.1 |
| 20260905070040 | 56 | 0 | 0.0 | 0.0 | 0.00 | 0.00 | 0.00 | 85 | 1018.9 |
| 20260905064533 | 56 | 0 | 0.0 | 0.0 | 0.00 | 0.00 | 0.00 | 86 | 1019.1 |
| 20260905063035 | 57 | 0 | 0.0 | 0.0 | 0.00 | 0.00 | 0.00 | 84 | 1019.2 |
| 20260905061538 | 57 | 0 | 0.0 | 0.0 | 0.00 | 0.00 | 0.00 | 82 | 1018.9 |
| 20260905060033 | 57 | 0 | 0.0 | 0.0 | 0.00 | 0.00 | 0.00 | 81 | 1018.8 |
| 20260905054538 | 58 | 0 | 0.0 | 0.0 | 0.00 | 0.00 | 0.00 | 78 | 1018.8 |
| 20260905053036 | 58 | 0 | 0.0 | 0.0 | 0.00 | 0.00 | 0.00 | 77 | 1019.1 |
| 20260905051537 | 59 | 0 | 0.0 | 0.0 | 0.00 | 0.00 | 0.00 | 78 | 1019.2 |
| 20260905050037 | 59 | 0 | 0.0 | 0.0 | 0.00 | 0.00 | 0.00 | 80 | 1019.2 |
| 20260905044536 | 59 | 0 | 0.0 | 0.0 | 0.00 | 0.00 | 0.00 | 81 | 1019.1 |
| 20260905043034 | 60 | 0 | 0.0 | 0.0 | 0.00 | 0.00 | 0.00 | 81 | 1019.3 |
| 20260905041547 | 60 | 0 | 0.0 | 0.0 | 0.00 | 0.00 | 0.00 | 81 | 1019.4 |
| 20260905040035 | 60 | 0 | 0.0 | 0.0 | 0.00 | 0.00 | 0.00 | 80 | 1019.4 |
| 20260905034541 | 61 | 0 | 0.0 | 0.0 | 0.00 | 0.00 | 0.00 | 79 | 1019.3 |
| 20260905033035 | 61 | 0 | 0.0 | 0.0 | 0.00 | 0.00 | 0.00 | 77 | 1019.6 |
| 20260905031536 | 61 | 0 | 0.0 | 0.0 | 0.00 | 0.00 | 0.00 | 77 | 1019.9 |
| 20260905030034 | 61 | 0 | 0.0 | 0.0 | 0.00 | 0.00 | 0.00 | 75 | 1020.0 |